createdAt,value
2023-04-23T00:01:26.895Z,13.18
2023-04-23T00:03:34.116Z,13.04
2023-04-23T00:05:38.295Z,13.04
2023-04-23T00:07:43.952Z,13.08
2023-04-23T00:09:46.381Z,12.92
2023-04-23T00:11:48.571Z,13.03
2023-04-23T00:13:50.840Z,13.03
2023-04-23T00:15:53.043Z,13.00
2023-04-23T00:17:54.861Z,13.01
2023-04-23T00:19:56.635Z,13.17
2023-04-23T00:21:58.400Z,13.17
2023-04-23T00:24:00.293Z,13.22
2023-04-23T00:26:02.281Z,13.03
2023-04-23T00:28:04.576Z,12.92
2023-04-23T00:30:10.011Z,13.16
2023-04-23T00:32:11.923Z,13.25
2023-04-23T00:34:16.756Z,13.09
2023-04-23T00:36:19.233Z,13.09
2023-04-23T00:38:21.429Z,13.08
2023-04-23T00:40:23.795Z,13.00
2023-04-23T00:42:25.837Z,13.06
2023-04-23T00:44:30.149Z,12.96
2023-04-23T00:46:31.943Z,13.06
2023-04-23T00:48:34.921Z,13.08
2023-04-23T00:50:37.381Z,13.13
2023-04-23T00:52:43.086Z,12.96
2023-04-23T00:54:44.945Z,12.90
2023-04-23T00:56:49.183Z,13.04
2023-04-23T00:58:55.534Z,13.06
2023-04-23T01:00:58.150Z,13.09
2023-04-23T01:03:01.778Z,12.90
2023-04-23T01:05:05.214Z,13.00
2023-04-23T01:07:08.138Z,13.08
2023-04-23T01:09:10.698Z,12.80
2023-04-23T01:11:15.252Z,12.74
2023-04-23T01:13:17.625Z,12.74
2023-04-23T01:15:19.787Z,12.93
2023-04-23T01:17:24.213Z,12.93
2023-04-23T01:19:30.245Z,12.73
2023-04-23T01:21:32.916Z,12.89
2023-04-23T01:23:34.907Z,12.96
2023-04-23T01:25:36.852Z,12.99
2023-04-23T01:27:39.361Z,13.08
2023-04-23T01:29:42.474Z,13.01
2023-04-23T01:31:45.275Z,12.90
2023-04-23T01:33:47.694Z,12.89
2023-04-23T01:35:50.148Z,12.95
2023-04-23T01:37:54.281Z,12.87
2023-04-23T01:39:57.001Z,12.90
2023-04-23T01:41:59.337Z,12.99
2023-04-23T01:44:02.563Z,12.89
2023-04-23T01:46:05.058Z,12.97
2023-04-23T01:48:07.278Z,12.97
2023-04-23T01:50:12.495Z,12.94
2023-04-23T01:52:14.737Z,13.05
2023-04-23T01:54:17.327Z,13.13
2023-04-23T01:56:23.567Z,12.86
2023-04-23T01:58:25.654Z,12.83
2023-04-23T02:00:29.669Z,12.81
2023-04-23T02:02:31.760Z,12.92
2023-04-23T02:04:34.641Z,12.83
2023-04-23T02:06:36.783Z,12.69
2023-04-23T02:08:42.107Z,12.91
2023-04-23T02:10:44.559Z,12.81
2023-04-23T02:12:49.561Z,12.81
2023-04-23T02:14:51.980Z,12.73
2023-04-23T02:16:54.687Z,12.86
2023-04-23T02:18:57.043Z,12.90
2023-04-23T02:21:00.150Z,12.83
2023-04-23T02:23:02.452Z,12.74
2023-04-23T02:25:05.499Z,12.77
2023-04-23T02:27:07.366Z,12.74
2023-04-23T02:29:09.265Z,12.98
2023-04-23T02:31:11.184Z,12.83
2023-04-23T02:33:13.720Z,12.62
2023-04-23T02:35:16.528Z,12.70
2023-04-23T02:37:18.368Z,12.62
2023-04-23T02:39:20.249Z,12.60
2023-04-23T02:41:22.394Z,12.58
2023-04-23T02:43:24.636Z,12.67
2023-04-23T02:45:27.039Z,12.65
2023-04-23T02:47:30.317Z,12.38
2023-04-23T02:49:32.470Z,12.59
2023-04-23T02:51:34.534Z,12.61
2023-04-23T02:53:36.595Z,12.55
2023-04-23T02:55:38.795Z,12.69
2023-04-23T02:57:41.280Z,12.70
2023-04-23T02:59:43.843Z,12.83
2023-04-23T03:01:46.101Z,12.91
2023-04-23T03:03:48.815Z,12.79
2023-04-23T03:05:51.166Z,12.83
2023-04-23T03:07:53.050Z,12.64
2023-04-23T03:09:55.657Z,12.86
2023-04-23T03:11:58.109Z,12.63
2023-04-23T03:14:00.272Z,12.73
2023-04-23T03:16:02.319Z,12.60
2023-04-23T03:18:06.260Z,12.74
2023-04-23T03:20:11.794Z,12.75
2023-04-23T03:22:14.157Z,12.85
2023-04-23T03:24:16.829Z,12.83
2023-04-23T03:26:18.963Z,12.82
2023-04-23T03:28:20.965Z,12.84
2023-04-23T03:30:22.922Z,12.99
2023-04-23T03:32:25.054Z,12.90
2023-04-23T03:34:27.234Z,12.94
2023-04-23T03:36:29.210Z,12.79
2023-04-23T03:38:31.255Z,12.85
2023-04-23T03:40:33.235Z,12.92
2023-04-23T03:42:37.700Z,12.82
2023-04-23T03:44:40.141Z,12.84
2023-04-23T03:46:42.332Z,12.93
2023-04-23T03:48:44.334Z,12.88
2023-04-23T03:50:46.414Z,12.89
2023-04-23T03:52:48.393Z,12.65
2023-04-23T03:54:51.187Z,12.85
2023-04-23T03:56:53.932Z,12.86
2023-04-23T03:58:55.880Z,12.85
2023-04-23T04:00:57.972Z,12.83
2023-04-23T04:03:02.694Z,12.90
2023-04-23T04:05:06.177Z,12.86
2023-04-23T04:07:09.063Z,12.64
2023-04-23T04:09:11.221Z,12.74
2023-04-23T04:11:13.252Z,12.53
2023-04-23T04:13:16.203Z,12.56
2023-04-23T04:15:20.520Z,12.72
2023-04-23T04:17:22.605Z,12.75
2023-04-23T04:19:24.974Z,12.61
2023-04-23T04:21:28.412Z,12.79
2023-04-23T04:23:30.349Z,12.68
2023-04-23T04:25:32.620Z,12.41
2023-04-23T04:27:34.869Z,12.46
2023-04-23T04:29:37.708Z,12.56
2023-04-23T04:31:39.710Z,12.74
2023-04-23T04:33:47.057Z,12.63
2023-04-23T04:35:49.782Z,12.54
2023-04-23T04:37:54.279Z,12.57
2023-04-23T04:39:56.255Z,12.59
2023-04-23T04:42:00.119Z,12.36
2023-04-23T04:44:02.408Z,12.40
2023-04-23T04:46:07.301Z,12.51
2023-04-23T04:48:10.231Z,12.63
2023-04-23T04:50:12.658Z,12.73
2023-04-23T04:52:14.534Z,12.71
2023-04-23T04:54:16.450Z,12.74
2023-04-23T04:56:19.053Z,12.70
2023-04-23T04:58:21.066Z,12.59
2023-04-23T05:00:28.276Z,12.49
2023-04-23T05:02:30.428Z,12.57
2023-04-23T05:04:32.822Z,12.53
2023-04-23T05:06:35.220Z,12.44
2023-04-23T05:08:37.340Z,12.56
2023-04-23T05:10:39.336Z,12.74
2023-04-23T05:12:43.411Z,12.60
2023-04-23T05:14:45.780Z,12.61
2023-04-23T05:16:48.031Z,12.53
2023-04-23T05:18:49.980Z,12.57
2023-04-23T05:20:51.987Z,12.43
2023-04-23T05:22:54.452Z,12.48
2023-04-23T05:24:57.419Z,12.45
2023-04-23T05:26:59.342Z,12.23
2023-04-23T05:29:01.546Z,12.32
2023-04-23T05:31:03.504Z,12.31
2023-04-23T05:33:09.674Z,12.49
2023-04-23T05:35:13.035Z,12.42
2023-04-23T05:37:16.270Z,12.43
2023-04-23T05:39:19.804Z,12.53
2023-04-23T05:41:22.424Z,12.56
2023-04-23T05:43:24.679Z,12.61
2023-04-23T05:45:26.729Z,12.50
2023-04-23T05:47:30.399Z,12.49
2023-04-23T05:49:32.358Z,12.51
2023-04-23T05:51:36.727Z,12.31
2023-04-23T05:53:38.927Z,12.36
2023-04-23T05:55:44.556Z,12.45
2023-04-23T05:57:46.886Z,12.54
2023-04-23T05:59:49.043Z,12.54
2023-04-23T06:01:51.988Z,12.50
2023-04-23T06:03:54.581Z,12.24
2023-04-23T06:05:56.958Z,12.42
2023-04-23T06:07:59.353Z,12.51
2023-04-23T06:10:01.499Z,12.52
2023-04-23T06:12:03.767Z,12.76
2023-04-23T06:14:06.024Z,12.61
2023-04-23T06:16:10.571Z,12.50
2023-04-23T06:18:17.138Z,12.60
2023-04-23T06:20:22.638Z,12.48
2023-04-23T06:22:28.123Z,12.67
2023-04-23T06:24:32.151Z,12.54
2023-04-23T06:26:34.492Z,12.65
2023-04-23T06:28:40.160Z,12.46
2023-04-23T06:30:42.737Z,12.60
2023-04-23T06:32:45.126Z,12.69
2023-04-23T06:34:59.983Z,12.71
2023-04-23T06:37:03.400Z,12.51
2023-04-23T06:39:05.375Z,12.34
2023-04-23T06:41:07.662Z,12.41
2023-04-23T06:43:14.902Z,12.42
2023-04-23T06:45:17.764Z,12.52
2023-04-23T06:47:20.616Z,12.61
2023-04-23T06:49:23.645Z,12.58
2023-04-23T06:51:28.157Z,12.74
2023-04-23T06:53:31.195Z,12.52
2023-04-23T06:55:34.050Z,12.60
2023-04-23T06:57:47.991Z,12.56
2023-04-23T06:59:50.145Z,12.65
2023-04-23T07:01:52.449Z,12.61
2023-04-23T07:03:55.615Z,12.78
2023-04-23T07:05:58.546Z,12.78
2023-04-23T07:08:01.633Z,12.75
2023-04-23T07:10:05.280Z,12.93
2023-04-23T07:12:08.914Z,13.03
2023-04-23T07:14:15.166Z,12.79
2023-04-23T07:16:19.166Z,12.81
2023-04-23T07:18:23.592Z,12.89
2023-04-23T07:20:26.650Z,12.98
2023-04-23T07:22:31.081Z,12.99
2023-04-23T07:24:44.995Z,13.13
2023-04-23T07:26:47.953Z,13.11
2023-04-23T07:29:01.520Z,13.12
2023-04-23T07:31:04.555Z,13.16
2023-04-23T07:33:07.999Z,13.16
2023-04-23T07:35:14.415Z,13.07
2023-04-23T07:37:17.209Z,13.14
2023-04-23T07:39:19.924Z,13.22
2023-04-23T07:41:23.999Z,13.03
2023-04-23T07:43:31.626Z,12.94
2023-04-23T07:45:35.087Z,13.12
2023-04-23T07:47:41.966Z,13.10
2023-04-23T07:49:45.486Z,13.16
2023-04-23T07:51:53.769Z,13.07
2023-04-23T07:53:58.113Z,13.24
2023-04-23T07:56:02.501Z,13.27
2023-04-23T07:58:06.281Z,13.21
2023-04-23T08:00:11.449Z,13.24
2023-04-23T08:02:15.735Z,13.27
2023-04-23T08:04:19.503Z,13.41
2023-04-23T08:06:26.522Z,13.36
2023-04-23T08:08:28.957Z,13.47
2023-04-23T08:10:32.329Z,13.32
2023-04-23T08:12:41.536Z,13.31
2023-04-23T08:14:50.971Z,13.44
2023-04-23T08:16:54.650Z,13.28
2023-04-23T08:19:30.265Z,13.40
2023-04-23T08:23:54.793Z,13.37
2023-04-23T08:28:52.376Z,13.65
2023-04-23T08:31:12.027Z,13.51
2023-04-23T08:33:25.456Z,13.54
2023-04-23T08:35:42.422Z,13.56
2023-04-23T08:38:06.578Z,13.53
2023-04-23T08:40:34.537Z,13.50
2023-04-23T08:42:54.698Z,13.61
2023-04-23T08:44:58.924Z,13.61
2023-04-23T08:47:27.594Z,13.81
2023-04-23T08:50:19.187Z,13.92
2023-04-23T08:52:20.785Z,14.07
2023-04-23T08:54:30.181Z,14.11
2023-04-23T08:56:40.594Z,14.14
2023-04-23T08:58:48.672Z,14.29
2023-04-23T09:00:50.673Z,14.15
2023-04-23T09:02:52.849Z,14.12
2023-04-23T09:04:56.414Z,14.24
2023-04-23T09:06:59.082Z,14.23
2023-04-23T09:09:01.041Z,14.20
2023-04-23T09:11:04.936Z,13.91
2023-04-23T09:13:06.771Z,13.98
2023-04-23T09:15:11.189Z,14.06
2023-04-23T09:17:13.070Z,13.91
2023-04-23T09:19:15.516Z,13.86
2023-04-23T09:21:17.343Z,13.94
2023-04-23T09:23:22.001Z,13.95
2023-04-23T09:25:24.432Z,13.86
2023-04-23T09:27:26.575Z,13.85
2023-04-23T09:29:28.723Z,13.92
2023-04-23T09:31:30.699Z,13.83
2023-04-23T09:33:35.805Z,13.97
2023-04-23T09:35:40.747Z,14.03
2023-04-23T09:37:45.203Z,14.05
2023-04-23T09:39:47.105Z,14.04
2023-04-23T09:41:49.246Z,13.87
2023-04-23T09:43:54.298Z,13.88
2023-04-23T09:45:56.329Z,14.01
2023-04-23T09:48:00.030Z,13.99
2023-04-23T09:50:02.203Z,13.89
2023-04-23T09:52:07.486Z,14.00
2023-04-23T09:54:21.880Z,13.82
2023-04-23T09:56:25.056Z,13.76
2023-04-23T09:58:28.930Z,13.73
2023-04-23T10:00:40.033Z,13.58
2023-04-23T10:02:47.207Z,13.79
2023-04-23T10:05:00.642Z,13.78
2023-04-23T10:07:18.818Z,13.75
2023-04-23T10:09:24.826Z,13.93
2023-04-23T10:11:28.302Z,14.03
2023-04-23T10:13:30.588Z,14.15
2023-04-23T10:15:34.329Z,14.05
2023-04-23T10:17:37.788Z,14.03
2023-04-23T10:19:41.559Z,14.04
2023-04-23T10:21:54.672Z,13.96
2023-04-23T10:24:00.945Z,13.77
2023-04-23T10:26:05.217Z,13.81
2023-04-23T10:28:09.362Z,13.76
2023-04-23T10:30:13.548Z,13.76
2023-04-23T10:32:19.741Z,13.51
2023-04-23T10:34:22.258Z,13.72
2023-04-23T10:36:26.112Z,13.79
2023-04-23T10:38:28.544Z,13.91
2023-04-23T10:40:32.452Z,13.88
2023-04-23T10:42:34.462Z,13.86
2023-04-23T10:46:53.951Z,14.03
2023-04-23T10:49:07.465Z,14.02
2023-04-23T10:51:31.835Z,14.20
2023-04-23T10:53:32.246Z,14.41
2023-04-23T10:55:34.129Z,14.55
2023-04-23T10:58:00.823Z,14.46
2023-04-23T11:00:04.887Z,14.24
2023-04-23T11:02:12.084Z,14.24
2023-04-23T11:04:25.525Z,14.41
2023-04-23T11:06:46.723Z,14.25
2023-04-23T11:08:54.233Z,14.29
2023-04-23T11:10:58.851Z,14.24
2023-04-23T11:13:21.413Z,14.17
2023-04-23T11:15:24.409Z,14.15
2023-04-23T11:17:33.752Z,14.21
2023-04-23T11:19:37.205Z,14.29
2023-04-23T11:21:58.963Z,14.05
2023-04-23T11:24:02.895Z,14.30
2023-04-23T11:26:06.067Z,14.44
2023-04-23T11:28:09.332Z,14.51
2023-04-23T11:30:17.368Z,14.24
2023-04-23T11:32:19.510Z,14.31
2023-04-23T11:34:22.741Z,14.49
2023-04-23T11:36:25.187Z,14.61
2023-04-23T11:38:33.736Z,14.77
2023-04-23T11:40:35.881Z,14.65
2023-04-23T11:42:47.515Z,14.66
2023-04-23T11:44:49.499Z,14.71
2023-04-23T11:46:51.375Z,14.78
2023-04-23T11:48:53.406Z,14.76
2023-04-23T11:50:55.373Z,14.61
2023-04-23T11:52:57.571Z,14.67
2023-04-23T11:55:04.269Z,14.63
2023-04-23T11:57:06.851Z,14.34
2023-04-23T11:59:08.831Z,14.40
2023-04-23T12:01:12.799Z,14.55
2023-04-23T12:03:16.569Z,14.58
2023-04-23T12:05:30.119Z,14.60
2023-04-23T12:07:33.048Z,14.47
2023-04-23T12:09:36.241Z,14.57
2023-04-23T12:11:38.672Z,14.60
2023-04-23T12:13:41.947Z,14.38
2023-04-23T12:15:47.153Z,14.26
2023-04-23T12:17:51.226Z,14.41
2023-04-23T12:19:53.045Z,14.48
2023-04-23T12:21:57.482Z,14.59
2023-04-23T12:23:59.522Z,14.63
2023-04-23T12:26:01.869Z,14.69
2023-04-23T12:28:05.742Z,14.63
2023-04-23T12:30:09.038Z,14.48
2023-04-23T12:32:15.459Z,14.48
2023-04-23T12:34:17.853Z,14.32
2023-04-23T12:36:20.106Z,14.43
2023-04-23T12:38:24.462Z,14.27
2023-04-23T12:40:29.503Z,14.09
2023-04-23T12:42:31.591Z,14.31
2023-04-23T12:44:35.645Z,14.21
2023-04-23T12:46:37.864Z,14.19
2023-04-23T12:48:39.764Z,14.39
2023-04-23T12:50:44.339Z,14.50
2023-04-23T12:52:46.292Z,14.50
2023-04-23T12:54:52.434Z,14.71
2023-04-23T12:56:54.485Z,14.76
2023-04-23T12:58:56.808Z,14.71
2023-04-23T13:00:58.906Z,14.79
2023-04-23T13:03:02.679Z,14.73
2023-04-23T13:05:05.720Z,14.73
2023-04-23T13:07:07.668Z,14.57
2023-04-23T13:09:10.647Z,14.47
2023-04-23T13:11:12.575Z,14.53
2023-04-23T13:13:14.652Z,14.50
2023-04-23T13:15:20.418Z,14.44
2023-04-23T13:17:23.400Z,14.49
2023-04-23T13:19:25.827Z,14.38
2023-04-23T13:21:28.081Z,14.42
2023-04-23T13:23:30.022Z,14.37
2023-04-23T13:25:32.063Z,14.36
2023-04-23T13:27:33.969Z,14.42
2023-04-23T13:29:35.987Z,14.37
2023-04-23T13:31:38.361Z,14.27
2023-04-23T13:33:41.403Z,14.31
2023-04-23T13:35:43.377Z,14.22
2023-04-23T13:37:45.651Z,14.24
2023-04-23T13:39:50.819Z,14.30
2023-04-23T13:42:06.170Z,14.31
2023-04-23T13:44:10.754Z,14.37
2023-04-23T13:46:13.742Z,14.32
2023-04-23T13:48:18.793Z,14.34
2023-04-23T13:50:21.227Z,14.35
2023-04-23T13:52:23.132Z,14.50
2023-04-23T13:54:29.635Z,14.64
2023-04-23T13:56:32.478Z,14.77
2023-04-23T13:58:36.797Z,14.59
2023-04-23T14:00:38.905Z,14.58
2023-04-23T14:02:41.140Z,14.83
2023-04-23T14:04:43.136Z,14.81
2023-04-23T14:06:45.384Z,14.75
2023-04-23T14:08:47.512Z,14.85
2023-04-23T14:10:49.470Z,14.87
2023-04-23T14:14:06.799Z,14.94
2023-04-23T14:16:08.876Z,15.04
2023-04-23T14:18:10.962Z,15.06
2023-04-23T14:20:15.795Z,15.05
2023-04-23T14:22:17.813Z,15.04
2023-04-23T14:24:27.914Z,15.09
2023-04-23T14:26:47.451Z,15.06
2023-04-23T14:28:52.339Z,15.15
2023-04-23T14:30:57.191Z,15.22
2023-04-23T14:32:59.542Z,15.30
2023-04-23T14:35:03.311Z,15.40
2023-04-23T14:37:05.491Z,15.39
2023-04-23T14:39:07.740Z,15.51
2023-04-23T14:41:12.330Z,15.56
2023-04-23T14:43:15.770Z,15.72
2023-04-23T14:45:19.224Z,15.86
2023-04-23T14:47:21.311Z,15.73
2023-04-23T14:49:24.352Z,15.79
2023-04-23T14:51:27.699Z,16.02
2023-04-23T14:53:29.947Z,15.99
2023-04-23T14:55:31.937Z,16.13
2023-04-23T14:57:33.878Z,16.08
2023-04-23T14:59:36.400Z,16.17
2023-04-23T15:01:38.528Z,16.49
2023-04-23T15:03:41.237Z,16.78
2023-04-23T15:05:43.490Z,17.04
2023-04-23T15:07:45.475Z,17.22
2023-04-23T15:09:47.520Z,17.42
2023-04-23T15:11:49.496Z,17.53
2023-04-23T15:14:04.235Z,17.86
2023-04-23T15:16:26.317Z,18.13
2023-04-23T15:18:37.946Z,18.17
2023-04-23T15:20:40.158Z,18.23
2023-04-23T15:22:42.545Z,18.31
2023-04-23T15:24:44.726Z,18.18
2023-04-23T15:26:46.884Z,18.21
2023-04-23T15:28:49.446Z,18.42
2023-04-23T15:30:51.676Z,18.71
2023-04-23T15:32:55.917Z,18.63
2023-04-23T15:34:57.887Z,18.83
2023-04-23T15:37:00.148Z,18.85
2023-04-23T15:39:02.321Z,19.14
2023-04-23T15:41:04.849Z,19.23
2023-04-23T15:43:06.776Z,19.38
2023-04-23T15:45:13.102Z,19.65
2023-04-23T15:47:15.127Z,19.92
2023-04-23T15:49:17.300Z,20.08
2023-04-23T15:51:19.442Z,20.26
2023-04-23T15:53:23.173Z,20.34
2023-04-23T15:55:26.145Z,20.28
2023-04-23T15:57:28.251Z,20.23
2023-04-23T15:59:30.409Z,20.05
2023-04-23T16:01:32.570Z,19.79
2023-04-23T16:03:37.159Z,19.63
2023-04-23T16:05:39.366Z,19.53
2023-04-23T16:07:41.529Z,19.37
2023-04-23T16:09:43.834Z,19.24
2023-04-23T16:11:46.244Z,19.16
2023-04-23T16:13:48.288Z,19.00
2023-04-23T16:15:53.456Z,18.58
2023-04-23T16:17:56.760Z,18.74
2023-04-23T16:19:58.750Z,18.66
2023-04-23T16:22:00.867Z,18.54
2023-04-23T16:24:03.209Z,18.50
2023-04-23T16:26:09.105Z,18.42
2023-04-23T16:28:13.472Z,18.33
2023-04-23T16:30:15.950Z,18.10
2023-04-23T16:32:20.944Z,18.04
2023-04-23T16:34:22.948Z,17.97
2023-04-23T16:36:25.107Z,17.80
2023-04-23T16:38:27.189Z,17.71
2023-04-23T16:40:29.558Z,17.40
2023-04-23T16:42:31.882Z,17.60
2023-04-23T16:44:36.293Z,17.47
2023-04-23T16:46:38.403Z,17.52
2023-04-23T16:48:40.613Z,17.50
2023-04-23T16:50:44.518Z,17.55
2023-04-23T16:52:46.924Z,17.54
2023-04-23T16:54:49.730Z,17.52
2023-04-23T16:56:51.844Z,17.51
2023-04-23T16:58:54.190Z,17.50
2023-04-23T17:00:56.230Z,17.53
2023-04-23T17:02:58.574Z,17.57
2023-04-23T17:05:00.662Z,17.45
2023-04-23T17:07:03.303Z,17.53
2023-04-23T17:09:06.062Z,17.50
2023-04-23T17:11:08.729Z,17.59
2023-04-23T17:13:10.802Z,17.63
2023-04-23T17:15:12.863Z,17.61
2023-04-23T17:17:15.027Z,17.51
2023-04-23T17:19:18.695Z,17.49
2023-04-23T17:21:20.981Z,17.41
2023-04-23T17:23:23.273Z,17.36
2023-04-23T17:25:25.424Z,17.18
2023-04-23T17:27:27.487Z,17.06
2023-04-23T17:29:29.541Z,16.95
2023-04-23T17:31:31.641Z,16.83
2023-04-23T17:33:34.088Z,16.77
2023-04-23T17:35:36.277Z,16.78
2023-04-23T17:37:38.336Z,16.71
2023-04-23T17:39:40.271Z,16.73
2023-04-23T17:41:42.370Z,16.60
2023-04-23T17:43:45.590Z,16.61
2023-04-23T17:45:48.132Z,16.39
2023-04-23T17:47:50.146Z,16.36
2023-04-23T17:49:52.264Z,16.21
2023-04-23T17:51:54.373Z,16.19
2023-04-23T17:53:56.723Z,16.23
2023-04-23T17:56:03.145Z,15.98
2023-04-23T17:58:06.736Z,15.95
2023-04-23T18:00:10.189Z,15.82
2023-04-23T18:02:12.206Z,15.81
2023-04-23T18:04:17.479Z,15.63
2023-04-23T18:06:20.724Z,15.53
2023-04-23T18:08:22.700Z,15.49
2023-04-23T18:10:24.846Z,15.49
2023-04-23T18:12:27.633Z,15.38
2023-04-23T18:14:29.811Z,15.50
2023-04-23T18:16:31.922Z,15.47
2023-04-23T18:18:34.042Z,15.24
2023-04-23T18:20:38.701Z,15.31
2023-04-23T18:22:41.732Z,15.10
2023-04-23T18:24:44.660Z,15.14
2023-04-23T18:26:48.751Z,15.00
2023-04-23T18:28:50.862Z,14.35
2023-04-23T18:30:54.497Z,14.58
2023-04-23T18:33:08.923Z,14.48
2023-04-23T18:35:11.061Z,14.35
2023-04-23T18:37:39.035Z,14.08
2023-04-23T18:39:41.385Z,13.89
2023-04-23T18:41:43.611Z,13.69
2023-04-23T18:43:48.230Z,13.56
2023-04-23T18:45:50.844Z,13.38
2023-04-23T18:48:04.656Z,13.05
2023-04-23T18:50:10.044Z,13.01
2023-04-23T18:52:12.224Z,12.93
2023-04-23T18:54:15.186Z,12.80
2023-04-23T18:56:17.191Z,12.68
2023-04-23T18:58:19.494Z,12.62
2023-04-23T19:00:21.757Z,12.54
2023-04-23T19:02:34.682Z,12.42
2023-04-23T19:04:38.077Z,12.43
2023-04-23T19:06:40.543Z,12.18
2023-04-23T19:08:42.830Z,12.20
2023-04-23T19:10:44.996Z,12.11
2023-04-23T19:12:47.161Z,12.13
2023-04-23T19:14:49.120Z,12.12
2023-04-23T19:16:51.392Z,12.12
2023-04-23T19:18:53.517Z,12.16
2023-04-23T19:20:55.928Z,12.17
2023-04-23T19:22:58.201Z,12.18
2023-04-23T19:25:01.045Z,12.19
2023-04-23T19:27:03.118Z,12.23
2023-04-23T19:29:05.016Z,12.12
2023-04-23T19:31:07.983Z,12.19
2023-04-23T19:33:12.881Z,12.20
2023-04-23T19:35:17.298Z,12.22
2023-04-23T19:37:19.248Z,12.12
2023-04-23T19:39:23.721Z,12.23
2023-04-23T19:41:26.381Z,12.24
2023-04-23T19:43:30.770Z,12.23
2023-04-23T19:45:36.661Z,12.27
2023-04-23T19:47:40.792Z,12.31
2023-04-23T19:49:43.689Z,12.22
2023-04-23T19:51:49.382Z,12.29
2023-04-23T19:53:56.009Z,12.24
2023-04-23T19:55:58.048Z,12.34
2023-04-23T19:58:06.680Z,12.36
2023-04-23T20:00:13.719Z,12.42
2023-04-23T20:02:16.915Z,12.43
2023-04-23T20:04:19.032Z,12.46
2023-04-23T20:06:21.309Z,12.45
2023-04-23T20:08:29.277Z,12.43
2023-04-23T20:10:31.786Z,12.38
2023-04-23T20:12:34.153Z,12.49
2023-04-23T20:14:39.199Z,12.51
2023-04-23T20:16:41.813Z,12.49
2023-04-23T20:18:47.440Z,12.49
2023-04-23T20:20:50.093Z,12.49
2023-04-23T20:22:52.028Z,12.53
2023-04-23T20:24:54.203Z,12.60
2023-04-23T20:26:56.935Z,12.58
2023-04-23T20:28:59.079Z,12.60
2023-04-23T20:31:03.296Z,12.58
2023-04-23T20:33:06.102Z,12.51
2023-04-23T20:35:09.574Z,12.58
2023-04-23T20:37:14.466Z,12.57
2023-04-23T20:39:20.492Z,12.55
2023-04-23T20:41:23.148Z,12.51
2023-04-23T20:43:25.092Z,12.53
2023-04-23T20:45:27.233Z,12.57
2023-04-23T20:47:29.132Z,12.52
2023-04-23T20:49:32.755Z,12.58
2023-04-23T20:51:34.804Z,12.52
2023-04-23T20:53:38.323Z,12.53
2023-04-23T20:55:40.224Z,12.37
2023-04-23T20:57:42.150Z,12.46
2023-04-23T20:59:44.331Z,12.41
2023-04-23T21:01:46.603Z,12.39
2023-04-23T21:03:49.180Z,12.48
2023-04-23T21:05:51.463Z,12.46
2023-04-23T21:07:54.010Z,12.37
2023-04-23T21:09:56.130Z,12.48
2023-04-23T21:11:58.627Z,12.51
2023-04-23T21:14:01.623Z,12.48
2023-04-23T21:16:04.101Z,12.51
2023-04-23T21:18:06.275Z,12.44
2023-04-23T21:20:11.932Z,12.40
2023-04-23T21:22:13.845Z,12.45
2023-04-23T21:24:15.700Z,12.47
2023-04-23T21:26:17.582Z,12.52
2023-04-23T21:28:19.878Z,12.50
2023-04-23T21:30:36.856Z,12.39
2023-04-23T21:32:38.786Z,12.47
2023-04-23T21:34:40.858Z,12.48
2023-04-23T21:36:44.981Z,12.50
2023-04-23T21:38:46.897Z,12.50
2023-04-23T21:40:49.083Z,12.55
2023-04-23T21:42:51.095Z,12.54
2023-04-23T21:44:52.999Z,12.55
2023-04-23T21:46:54.893Z,12.56
2023-04-23T21:48:56.983Z,12.40
2023-04-23T21:50:58.927Z,12.50
2023-04-23T21:53:03.248Z,12.54
2023-04-23T21:55:06.592Z,12.58
2023-04-23T21:57:08.529Z,12.49
2023-04-23T21:59:10.756Z,12.55
2023-04-23T22:01:12.753Z,12.56
2023-04-23T22:03:17.470Z,12.51
2023-04-23T22:05:29.615Z,12.51
2023-04-23T22:07:31.536Z,12.54
2023-04-23T22:09:33.482Z,12.48
2023-04-23T22:11:35.438Z,12.53
2023-04-23T22:13:37.384Z,12.50
2023-04-23T22:15:39.313Z,12.51
2023-04-23T22:17:46.414Z,12.48
2023-04-23T22:19:52.319Z,12.41
2023-04-23T22:21:55.897Z,12.47
2023-04-23T22:23:57.983Z,12.48
2023-04-23T22:25:59.976Z,12.50
2023-04-23T22:28:03.630Z,12.39
2023-04-23T22:30:08.411Z,12.39
2023-04-23T22:32:10.364Z,12.42
2023-04-23T22:34:12.250Z,12.41
2023-04-23T22:36:14.362Z,12.42
2023-04-23T22:38:16.477Z,12.37
2023-04-23T22:40:18.563Z,12.30
2023-04-23T22:42:20.784Z,12.28
2023-04-23T22:44:22.622Z,12.30
2023-04-23T22:46:24.501Z,12.32
2023-04-23T22:48:30.978Z,12.27
2023-04-23T22:50:33.219Z,12.30
2023-04-23T22:52:35.507Z,12.27
2023-04-23T22:54:37.634Z,12.28
2023-04-23T22:56:39.494Z,12.28
2023-04-23T22:58:41.541Z,12.28
2023-04-23T23:00:43.474Z,12.23
2023-04-23T23:02:45.653Z,12.11
2023-04-23T23:04:47.641Z,12.12
2023-04-23T23:06:49.534Z,12.17
2023-04-23T23:08:51.431Z,12.20
2023-04-23T23:10:53.474Z,12.16
2023-04-23T23:12:55.483Z,12.07
2023-04-23T23:14:57.267Z,12.13
2023-04-23T23:16:59.515Z,12.19
2023-04-23T23:19:04.392Z,12.18
2023-04-23T23:21:06.485Z,12.16
2023-04-23T23:23:08.498Z,12.19
2023-04-23T23:25:12.995Z,12.14
2023-04-23T23:27:15.286Z,12.13
2023-04-23T23:29:17.311Z,12.04
2023-04-23T23:31:19.193Z,12.09
2023-04-23T23:33:21.650Z,11.98
2023-04-23T23:35:23.644Z,12.05
2023-04-23T23:37:25.557Z,12.11
2023-04-23T23:39:28.970Z,12.09
2023-04-23T23:41:30.886Z,12.15
2023-04-23T23:43:32.731Z,12.15
2023-04-23T23:45:35.293Z,12.18
2023-04-23T23:47:37.600Z,12.17
2023-04-23T23:49:39.599Z,12.16
2023-04-23T23:51:41.523Z,12.09
2023-04-23T23:53:43.395Z,12.13
2023-04-23T23:55:45.190Z,12.12
2023-04-23T23:57:46.975Z,12.12
2023-04-23T23:59:48.782Z,12.15
